sensor_id;sensor_type;location;lat;lon;timestamp;pressure;altitude;pressure_sealevel;temperature
15845;BMP180;50807;52.436;13.346;2023-01-15T00:00:11;99285.00;;;11.90
15845;BMP180;50807;52.436;13.346;2023-01-15T00:00:42;99263.00;;;12.00
15845;BMP180;50807;52.436;13.346;2023-01-15T00:01:22;99265.00;;;11.90
15845;BMP180;50807;52.436;13.346;2023-01-15T00:01:54;99274.00;;;11.90
15845;BMP180;50807;52.436;13.346;2023-01-15T00:02:25;99266.00;;;12.00
15845;BMP180;50807;52.436;13.346;2023-01-15T00:02:55;99279.00;;;12.00
15845;BMP180;50807;52.436;13.346;2023-01-15T00:03:28;99284.00;;;12.00
15845;BMP180;50807;52.436;13.346;2023-01-15T00:04:00;99264.00;;;12.00
15845;BMP180;50807;52.436;13.346;2023-01-15T00:04:33;99276.00;;;12.00
15845;BMP180;50807;52.436;13.346;2023-01-15T00:05:06;99268.00;;;12.00
15845;BMP180;50807;52.436;13.346;2023-01-15T00:05:36;99274.00;;;12.00
15845;BMP180;50807;52.436;13.346;2023-01-15T00:06:08;99277.00;;;12.00
15845;BMP180;50807;52.436;13.346;2023-01-15T00:06:41;99267.00;;;12.00
15845;BMP180;50807;52.436;13.346;2023-01-15T00:07:13;99275.00;;;12.00
15845;BMP180;50807;52.436;13.346;2023-01-15T00:07:43;99267.00;;;12.00
15845;BMP180;50807;52.436;13.346;2023-01-15T00:08:14;99270.00;;;12.00
15845;BMP180;50807;52.436;13.346;2023-01-15T00:08:46;99263.00;;;12.00
15845;BMP180;50807;52.436;13.346;2023-01-15T00:09:17;99266.00;;;12.10
15845;BMP180;50807;52.436;13.346;2023-01-15T00:09:49;99267.00;;;12.10
15845;BMP180;50807;52.436;13.346;2023-01-15T00:10:20;99283.00;;;12.00
15845;BMP180;50807;52.436;13.346;2023-01-15T00:10:51;99304.00;;;12.00
15845;BMP180;50807;52.436;13.346;2023-01-15T00:11:23;99262.00;;;12.10
15845;BMP180;50807;52.436;13.346;2023-01-15T00:11:54;99267.00;;;12.00
15845;BMP180;50807;52.436;13.346;2023-01-15T00:12:25;99258.00;;;12.00
15845;BMP180;50807;52.436;13.346;2023-01-15T00:12:56;99264.00;;;12.10
15845;BMP180;50807;52.436;13.346;2023-01-15T00:13:27;99261.00;;;12.10
15845;BMP180;50807;52.436;13.346;2023-01-15T00:13:59;99272.00;;;12.10
15845;BMP180;50807;52.436;13.346;2023-01-15T00:14:30;99262.00;;;12.10
15845;BMP180;50807;52.436;13.346;2023-01-15T00:15:02;99253.00;;;12.10
15845;BMP180;50807;52.436;13.346;2023-01-15T00:15:33;99258.00;;;12.10
15845;BMP180;50807;52.436;13.346;2023-01-15T00:16:07;99249.00;;;12.00
15845;BMP180;50807;52.436;13.346;2023-01-15T00:16:39;99257.00;;;12.10
15845;BMP180;50807;52.436;13.346;2023-01-15T00:17:11;99281.00;;;12.10
15845;BMP180;50807;52.436;13.346;2023-01-15T00:17:42;99265.00;;;12.10
15845;BMP180;50807;52.436;13.346;2023-01-15T00:18:12;99266.00;;;12.10
15845;BMP180;50807;52.436;13.346;2023-01-15T00:18:49;99257.00;;;12.00
15845;BMP180;50807;52.436;13.346;2023-01-15T00:19:20;99263.00;;;12.10
15845;BMP180;50807;52.436;13.346;2023-01-15T00:19:52;99278.00;;;12.10
15845;BMP180;50807;52.436;13.346;2023-01-15T00:20:23;99277.00;;;12.10
15845;BMP180;50807;52.436;13.346;2023-01-15T00:20:58;99275.00;;;12.10
15845;BMP180;50807;52.436;13.346;2023-01-15T00:21:31;99273.00;;;12.10
15845;BMP180;50807;52.436;13.346;2023-01-15T00:22:02;99272.00;;;12.10
15845;BMP180;50807;52.436;13.346;2023-01-15T00:22:34;99261.00;;;12.10
15845;BMP180;50807;52.436;13.346;2023-01-15T00:23:04;99270.00;;;12.10
15845;BMP180;50807;52.436;13.346;2023-01-15T00:23:35;99271.00;;;12.10
15845;BMP180;50807;52.436;13.346;2023-01-15T00:24:25;99276.00;;;12.10
15845;BMP180;50807;52.436;13.346;2023-01-15T00:25:14;99272.00;;;12.10
15845;BMP180;50807;52.436;13.346;2023-01-15T00:26:04;99270.00;;;12.10
15845;BMP180;50807;52.436;13.346;2023-01-15T00:26:53;99270.00;;;12.00
15845;BMP180;50807;52.436;13.346;2023-01-15T00:27:42;99260.00;;;12.00
15845;BMP180;50807;52.436;13.346;2023-01-15T00:28:15;99263.00;;;12.00
15845;BMP180;50807;52.436;13.346;2023-01-15T00:28:47;99254.00;;;12.10
15845;BMP180;50807;52.436;13.346;2023-01-15T00:29:18;99247.00;;;12.10
15845;BMP180;50807;52.436;13.346;2023-01-15T00:29:49;99252.00;;;12.10
15845;BMP180;50807;52.436;13.346;2023-01-15T00:30:21;99257.00;;;12.10
15845;BMP180;50807;52.436;13.346;2023-01-15T00:30:53;99265.00;;;12.10
15845;BMP180;50807;52.436;13.346;2023-01-15T00:31:24;99252.00;;;12.10
15845;BMP180;50807;52.436;13.346;2023-01-15T00:31:58;99253.00;;;12.10
15845;BMP180;50807;52.436;13.346;2023-01-15T00:32:31;99251.00;;;12.10
15845;BMP180;50807;52.436;13.346;2023-01-15T00:33:01;99243.00;;;12.10
15845;BMP180;50807;52.436;13.346;2023-01-15T00:33:32;99234.00;;;12.10
15845;BMP180;50807;52.436;13.346;2023-01-15T00:34:04;99245.00;;;12.10
15845;BMP180;50807;52.436;13.346;2023-01-15T00:34:35;99239.00;;;12.20
15845;BMP180;50807;52.436;13.346;2023-01-15T00:35:09;99253.00;;;12.20
15845;BMP180;50807;52.436;13.346;2023-01-15T00:35:42;99247.00;;;12.20
15845;BMP180;50807;52.436;13.346;2023-01-15T00:36:13;99255.00;;;12.20
15845;BMP180;50807;52.436;13.346;2023-01-15T00:36:43;99246.00;;;12.20
15845;BMP180;50807;52.436;13.346;2023-01-15T00:37:15;99245.00;;;12.20
15845;BMP180;50807;52.436;13.346;2023-01-15T00:37:47;99236.00;;;12.10
15845;BMP180;50807;52.436;13.346;2023-01-15T00:38:18;99238.00;;;12.20
15845;BMP180;50807;52.436;13.346;2023-01-15T00:38:49;99237.00;;;12.20
15845;BMP180;50807;52.436;13.346;2023-01-15T00:39:20;99239.00;;;12.20
15845;BMP180;50807;52.436;13.346;2023-01-15T00:39:53;99245.00;;;12.20
15845;BMP180;50807;52.436;13.346;2023-01-15T00:40:24;99226.00;;;12.20
15845;BMP180;50807;52.436;13.346;2023-01-15T00:40:55;99219.00;;;12.20
15845;BMP180;50807;52.436;13.346;2023-01-15T00:41:26;99243.00;;;12.20
15845;BMP180;50807;52.436;13.346;2023-01-15T00:41:57;99236.00;;;12.20
15845;BMP180;50807;52.436;13.346;2023-01-15T00:42:28;99235.00;;;12.20
15845;BMP180;50807;52.436;13.346;2023-01-15T00:42:59;99215.00;;;12.20
15845;BMP180;50807;52.436;13.346;2023-01-15T00:43:30;99226.00;;;12.20
15845;BMP180;50807;52.436;13.346;2023-01-15T00:44:01;99218.00;;;12.20
15845;BMP180;50807;52.436;13.346;2023-01-15T00:44:33;99231.00;;;12.20
15845;BMP180;50807;52.436;13.346;2023-01-15T00:45:05;99218.00;;;12.20
15845;BMP180;50807;52.436;13.346;2023-01-15T00:45:39;99219.00;;;12.20
15845;BMP180;50807;52.436;13.346;2023-01-15T00:46:11;99222.00;;;12.20
15845;BMP180;50807;52.436;13.346;2023-01-15T00:46:42;99229.00;;;12.30
15845;BMP180;50807;52.436;13.346;2023-01-15T00:47:14;99212.00;;;12.20
15845;BMP180;50807;52.436;13.346;2023-01-15T00:47:45;99224.00;;;12.30
15845;BMP180;50807;52.436;13.346;2023-01-15T00:48:20;99216.00;;;12.30
15845;BMP180;50807;52.436;13.346;2023-01-15T00:48:50;99211.00;;;12.30
15845;BMP180;50807;52.436;13.346;2023-01-15T00:49:21;99221.00;;;12.30
15845;BMP180;50807;52.436;13.346;2023-01-15T00:49:53;99223.00;;;12.30
15845;BMP180;50807;52.436;13.346;2023-01-15T00:50:23;99217.00;;;12.30
15845;BMP180;50807;52.436;13.346;2023-01-15T00:50:54;99218.00;;;12.30
15845;BMP180;50807;52.436;13.346;2023-01-15T00:51:26;99216.00;;;12.30
15845;BMP180;50807;52.436;13.346;2023-01-15T00:51:57;99223.00;;;12.30
15845;BMP180;50807;52.436;13.346;2023-01-15T00:52:27;99224.00;;;12.30
15845;BMP180;50807;52.436;13.346;2023-01-15T00:52:59;99210.00;;;12.30
15845;BMP180;50807;52.436;13.346;2023-01-15T00:53:30;99229.00;;;12.30
15845;BMP180;50807;52.436;13.346;2023-01-15T00:54:02;99219.00;;;12.30
15845;BMP180;50807;52.436;13.346;2023-01-15T00:54:34;99218.00;;;12.30
15845;BMP180;50807;52.436;13.346;2023-01-15T00:55:07;99224.00;;;12.30
15845;BMP180;50807;52.436;13.346;2023-01-15T00:55:38;99235.00;;;12.30
15845;BMP180;50807;52.436;13.346;2023-01-15T00:56:10;99234.00;;;12.30
15845;BMP180;50807;52.436;13.346;2023-01-15T00:56:40;99228.00;;;12.30
15845;BMP180;50807;52.436;13.346;2023-01-15T00:57:11;99226.00;;;12.30
15845;BMP180;50807;52.436;13.346;2023-01-15T00:57:43;99218.00;;;12.40
15845;BMP180;50807;52.436;13.346;2023-01-15T00:58:13;99217.00;;;12.40
15845;BMP180;50807;52.436;13.346;2023-01-15T00:58:44;99228.00;;;12.40
15845;BMP180;50807;52.436;13.346;2023-01-15T00:59:17;99224.00;;;12.40
15845;BMP180;50807;52.436;13.346;2023-01-15T00:59:48;99225.00;;;12.40
15845;BMP180;50807;52.436;13.346;2023-01-15T01:00:19;99227.00;;;12.40
15845;BMP180;50807;52.436;13.346;2023-01-15T01:00:52;99220.00;;;12.40
15845;BMP180;50807;52.436;13.346;2023-01-15T01:01:24;99204.00;;;12.40
15845;BMP180;50807;52.436;13.346;2023-01-15T01:01:54;99210.00;;;12.40
15845;BMP180;50807;52.436;13.346;2023-01-15T01:02:27;99223.00;;;12.40
15845;BMP180;50807;52.436;13.346;2023-01-15T01:02:58;99208.00;;;12.40
15845;BMP180;50807;52.436;13.346;2023-01-15T01:03:29;99202.00;;;12.40
15845;BMP180;50807;52.436;13.346;2023-01-15T01:04:01;99203.00;;;12.40
15845;BMP180;50807;52.436;13.346;2023-01-15T01:04:32;99213.00;;;12.40
15845;BMP180;50807;52.436;13.346;2023-01-15T01:05:04;99195.00;;;12.40
15845;BMP180;50807;52.436;13.346;2023-01-15T01:05:37;99199.00;;;12.40
15845;BMP180;50807;52.436;13.346;2023-01-15T01:06:08;99216.00;;;12.40
15845;BMP180;50807;52.436;13.346;2023-01-15T01:06:39;99210.00;;;12.40
15845;BMP180;50807;52.436;13.346;2023-01-15T01:07:11;99201.00;;;12.40
15845;BMP180;50807;52.436;13.346;2023-01-15T01:07:42;99203.00;;;12.40
15845;BMP180;50807;52.436;13.346;2023-01-15T01:08:13;99208.00;;;12.40
15845;BMP180;50807;52.436;13.346;2023-01-15T01:08:45;99208.00;;;12.40
15845;BMP180;50807;52.436;13.346;2023-01-15T01:09:16;99214.00;;;12.40
15845;BMP180;50807;52.436;13.346;2023-01-15T01:09:47;99218.00;;;12.40
15845;BMP180;50807;52.436;13.346;2023-01-15T01:10:18;99208.00;;;12.40
15845;BMP180;50807;52.436;13.346;2023-01-15T01:11:01;99206.00;;;12.30
15845;BMP180;50807;52.436;13.346;2023-01-15T01:11:31;99204.00;;;12.40
15845;BMP180;50807;52.436;13.346;2023-01-15T01:12:04;99205.00;;;12.30
15845;BMP180;50807;52.436;13.346;2023-01-15T01:12:36;99213.00;;;12.40
15845;BMP180;50807;52.436;13.346;2023-01-15T01:13:07;99210.00;;;12.40
15845;BMP180;50807;52.436;13.346;2023-01-15T01:13:38;99191.00;;;12.40
15845;BMP180;50807;52.436;13.346;2023-01-15T01:14:11;99203.00;;;12.40
15845;BMP180;50807;52.436;13.346;2023-01-15T01:14:42;99194.00;;;12.40
15845;BMP180;50807;52.436;13.346;2023-01-15T01:15:14;99192.00;;;12.40
15845;BMP180;50807;52.436;13.346;2023-01-15T01:15:45;99184.00;;;12.40
15845;BMP180;50807;52.436;13.346;2023-01-15T01:16:24;99196.00;;;12.30
15845;BMP180;50807;52.436;13.346;2023-01-15T01:16:55;99191.00;;;12.40
15845;BMP180;50807;52.436;13.346;2023-01-15T01:17:28;99191.00;;;12.40
15845;BMP180;50807;52.436;13.346;2023-01-15T01:17:59;99201.00;;;12.40
15845;BMP180;50807;52.436;13.346;2023-01-15T01:18:29;99202.00;;;12.40
15845;BMP180;50807;52.436;13.346;2023-01-15T01:19:04;99184.00;;;12.40
15845;BMP180;50807;52.436;13.346;2023-01-15T01:19:35;99196.00;;;12.40
15845;BMP180;50807;52.436;13.346;2023-01-15T01:20:08;99196.00;;;12.40
15845;BMP180;50807;52.436;13.346;2023-01-15T01:20:41;99189.00;;;12.40
15845;BMP180;50807;52.436;13.346;2023-01-15T01:21:13;99197.00;;;12.50
15845;BMP180;50807;52.436;13.346;2023-01-15T01:21:46;99192.00;;;12.40
15845;BMP180;50807;52.436;13.346;2023-01-15T01:22:16;99199.00;;;12.40
15845;BMP180;50807;52.436;13.346;2023-01-15T01:22:48;99198.00;;;12.40
15845;BMP180;50807;52.436;13.346;2023-01-15T01:23:22;99199.00;;;12.40
15845;BMP180;50807;52.436;13.346;2023-01-15T01:23:53;99196.00;;;12.50
15845;BMP180;50807;52.436;13.346;2023-01-15T01:24:25;99198.00;;;12.40
15845;BMP180;50807;52.436;13.346;2023-01-15T01:24:57;99197.00;;;12.50
15845;BMP180;50807;52.436;13.346;2023-01-15T01:25:27;99195.00;;;12.50
15845;BMP180;50807;52.436;13.346;2023-01-15T01:25:59;99195.00;;;12.50
15845;BMP180;50807;52.436;13.346;2023-01-15T01:26:30;99191.00;;;12.50
15845;BMP180;50807;52.436;13.346;2023-01-15T01:27:01;99197.00;;;12.50
15845;BMP180;50807;52.436;13.346;2023-01-15T01:27:31;99192.00;;;12.50
15845;BMP180;50807;52.436;13.346;2023-01-15T01:28:03;99202.00;;;12.50
15845;BMP180;50807;52.436;13.346;2023-01-15T01:28:34;99197.00;;;12.50
15845;BMP180;50807;52.436;13.346;2023-01-15T01:29:05;99198.00;;;12.50
15845;BMP180;50807;52.436;13.346;2023-01-15T01:29:37;99219.00;;;12.50
15845;BMP180;50807;52.436;13.346;2023-01-15T01:30:10;99217.00;;;12.50
15845;BMP180;50807;52.436;13.346;2023-01-15T01:30:40;99218.00;;;12.50
15845;BMP180;50807;52.436;13.346;2023-01-15T01:31:12;99219.00;;;12.50
15845;BMP180;50807;52.436;13.346;2023-01-15T01:31:44;99221.00;;;12.50
15845;BMP180;50807;52.436;13.346;2023-01-15T01:32:15;99223.00;;;12.50
15845;BMP180;50807;52.436;13.346;2023-01-15T01:32:47;99217.00;;;12.50
15845;BMP180;50807;52.436;13.346;2023-01-15T01:33:19;99217.00;;;12.50
15845;BMP180;50807;52.436;13.346;2023-01-15T01:33:51;99213.00;;;12.50
15845;BMP180;50807;52.436;13.346;2023-01-15T01:34:23;99204.00;;;12.50
15845;BMP180;50807;52.436;13.346;2023-01-15T01:34:53;99219.00;;;12.50
15845;BMP180;50807;52.436;13.346;2023-01-15T01:35:24;99199.00;;;12.50
15845;BMP180;50807;52.436;13.346;2023-01-15T01:35:56;99204.00;;;12.50
15845;BMP180;50807;52.436;13.346;2023-01-15T01:36:30;99200.00;;;12.50
15845;BMP180;50807;52.436;13.346;2023-01-15T01:37:01;99198.00;;;12.60
15845;BMP180;50807;52.436;13.346;2023-01-15T01:37:33;99178.00;;;12.60
15845;BMP180;50807;52.436;13.346;2023-01-15T01:38:03;99211.00;;;12.60
15845;BMP180;50807;52.436;13.346;2023-01-15T01:38:34;99190.00;;;12.60
15845;BMP180;50807;52.436;13.346;2023-01-15T01:39:11;99197.00;;;12.50
15845;BMP180;50807;52.436;13.346;2023-01-15T01:39:43;99198.00;;;12.60
15845;BMP180;50807;52.436;13.346;2023-01-15T01:40:15;99206.00;;;12.60
15845;BMP180;50807;52.436;13.346;2023-01-15T01:40:46;99189.00;;;12.60
15845;BMP180;50807;52.436;13.346;2023-01-15T01:41:18;99195.00;;;12.60
15845;BMP180;50807;52.436;13.346;2023-01-15T01:41:50;99194.00;;;12.60
15845;BMP180;50807;52.436;13.346;2023-01-15T01:42:21;99173.00;;;12.60
15845;BMP180;50807;52.436;13.346;2023-01-15T01:42:52;99185.00;;;12.60
15845;BMP180;50807;52.436;13.346;2023-01-15T01:43:27;99178.00;;;12.60
15845;BMP180;50807;52.436;13.346;2023-01-15T01:44:00;99188.00;;;12.60
15845;BMP180;50807;52.436;13.346;2023-01-15T01:44:59;99178.00;;;12.40
15845;BMP180;50807;52.436;13.346;2023-01-15T01:45:32;99172.00;;;12.50
15845;BMP180;50807;52.436;13.346;2023-01-15T01:46:03;99156.00;;;12.50
15845;BMP180;50807;52.436;13.346;2023-01-15T01:46:35;99184.00;;;12.60
15845;BMP180;50807;52.436;13.346;2023-01-15T01:47:11;99171.00;;;12.50
15845;BMP180;50807;52.436;13.346;2023-01-15T01:47:46;99176.00;;;12.60
15845;BMP180;50807;52.436;13.346;2023-01-15T01:48:22;99177.00;;;12.50
15845;BMP180;50807;52.436;13.346;2023-01-15T01:49:01;99178.00;;;12.50
15845;BMP180;50807;52.436;13.346;2023-01-15T01:49:33;99187.00;;;12.60
15845;BMP180;50807;52.436;13.346;2023-01-15T01:50:11;99179.00;;;12.60
15845;BMP180;50807;52.436;13.346;2023-01-15T01:50:45;99178.00;;;12.60
15845;BMP180;50807;52.436;13.346;2023-01-15T01:51:18;99198.00;;;12.60
15845;BMP180;50807;52.436;13.346;2023-01-15T01:52:00;99187.00;;;12.50
15845;BMP180;50807;52.436;13.346;2023-01-15T01:52:40;99191.00;;;12.50
15845;BMP180;50807;52.436;13.346;2023-01-15T01:53:17;99185.00;;;12.50
15845;BMP180;50807;52.436;13.346;2023-01-15T01:53:49;99196.00;;;12.60
15845;BMP180;50807;52.436;13.346;2023-01-15T01:54:24;99185.00;;;12.60
15845;BMP180;50807;52.436;13.346;2023-01-15T01:54:56;99160.00;;;12.60
15845;BMP180;50807;52.436;13.346;2023-01-15T01:55:29;99192.00;;;12.60
15845;BMP180;50807;52.436;13.346;2023-01-15T01:56:03;99196.00;;;12.60
15845;BMP180;50807;52.436;13.346;2023-01-15T01:56:35;99184.00;;;12.60
15845;BMP180;50807;52.436;13.346;2023-01-15T01:57:08;99180.00;;;12.60
15845;BMP180;50807;52.436;13.346;2023-01-15T01:57:41;99192.00;;;12.60
15845;BMP180;50807;52.436;13.346;2023-01-15T01:58:13;99176.00;;;12.60
15845;BMP180;50807;52.436;13.346;2023-01-15T01:58:50;99187.00;;;12.60
15845;BMP180;50807;52.436;13.346;2023-01-15T01:59:25;99187.00;;;12.60
15845;BMP180;50807;52.436;13.346;2023-01-15T01:59:57;99192.00;;;12.60
15845;BMP180;50807;52.436;13.346;2023-01-15T02:00:30;99180.00;;;12.60
15845;BMP180;50807;52.436;13.346;2023-01-15T02:01:04;99188.00;;;12.60
15845;BMP180;50807;52.436;13.346;2023-01-15T02:01:35;99193.00;;;12.60
15845;BMP180;50807;52.436;13.346;2023-01-15T02:02:06;99188.00;;;12.60
15845;BMP180;50807;52.436;13.346;2023-01-15T02:02:38;99181.00;;;12.60
15845;BMP180;50807;52.436;13.346;2023-01-15T02:03:12;99196.00;;;12.60
15845;BMP180;50807;52.436;13.346;2023-01-15T02:03:43;99184.00;;;12.60
15845;BMP180;50807;52.436;13.346;2023-01-15T02:04:19;99192.00;;;12.60
15845;BMP180;50807;52.436;13.346;2023-01-15T02:04:51;99185.00;;;12.60
15845;BMP180;50807;52.436;13.346;2023-01-15T02:05:29;99184.00;;;12.50
15845;BMP180;50807;52.436;13.346;2023-01-15T02:06:06;99184.00;;;12.50
15845;BMP180;50807;52.436;13.346;2023-01-15T02:06:40;99181.00;;;12.60
15845;BMP180;50807;52.436;13.346;2023-01-15T02:07:12;99180.00;;;12.60
15845;BMP180;50807;52.436;13.346;2023-01-15T02:07:43;99189.00;;;12.60
15845;BMP180;50807;52.436;13.346;2023-01-15T02:08:14;99178.00;;;12.60
15845;BMP180;50807;52.436;13.346;2023-01-15T02:08:46;99178.00;;;12.60
15845;BMP180;50807;52.436;13.346;2023-01-15T02:09:17;99188.00;;;12.60
15845;BMP180;50807;52.436;13.346;2023-01-15T02:09:47;99187.00;;;12.60
15845;BMP180;50807;52.436;13.346;2023-01-15T02:10:19;99189.00;;;12.60
15845;BMP180;50807;52.436;13.346;2023-01-15T02:10:53;99178.00;;;12.60
15845;BMP180;50807;52.436;13.346;2023-01-15T02:11:34;99187.00;;;12.50
15845;BMP180;50807;52.436;13.346;2023-01-15T02:12:18;99194.00;;;12.40
15845;BMP180;50807;52.436;13.346;2023-01-15T02:12:59;99199.00;;;12.40
15845;BMP180;50807;52.436;13.346;2023-01-15T02:13:37;99174.00;;;12.40
15845;BMP180;50807;52.436;13.346;2023-01-15T02:14:15;99175.00;;;12.40
15845;BMP180;50807;52.436;13.346;2023-01-15T02:14:54;99187.00;;;12.40
15845;BMP180;50807;52.436;13.346;2023-01-15T02:15:35;99182.00;;;12.40
15845;BMP180;50807;52.436;13.346;2023-01-15T02:16:15;99154.00;;;12.40
15845;BMP180;50807;52.436;13.346;2023-01-15T02:16:56;99175.00;;;12.30
15845;BMP180;50807;52.436;13.346;2023-01-15T02:17:35;99165.00;;;12.30
15845;BMP180;50807;52.436;13.346;2023-01-15T02:18:17;99163.00;;;12.30
15845;BMP180;50807;52.436;13.346;2023-01-15T02:18:58;99165.00;;;12.30
15845;BMP180;50807;52.436;13.346;2023-01-15T02:19:46;99170.00;;;12.30
15845;BMP180;50807;52.436;13.346;2023-01-15T02:20:28;99174.00;;;12.30
15845;BMP180;50807;52.436;13.346;2023-01-15T02:21:08;99171.00;;;12.30
15845;BMP180;50807;52.436;13.346;2023-01-15T02:21:49;99169.00;;;12.20
15845;BMP180;50807;52.436;13.346;2023-01-15T02:22:35;99180.00;;;12.20
15845;BMP180;50807;52.436;13.346;2023-01-15T02:23:36;99184.00;;;12.10
15845;BMP180;50807;52.436;13.346;2023-01-15T02:24:22;99189.00;;;12.10
15845;BMP180;50807;52.436;13.346;2023-01-15T02:25:11;99187.00;;;12.10
15845;BMP180;50807;52.436;13.346;2023-01-15T02:26:02;99165.00;;;12.10
15845;BMP180;50807;52.436;13.346;2023-01-15T02:27:01;99184.00;;;12.10
15845;BMP180;50807;52.436;13.346;2023-01-15T02:27:36;99189.00;;;12.10
15845;BMP180;50807;52.436;13.346;2023-01-15T02:28:14;99191.00;;;12.10
15845;BMP180;50807;52.436;13.346;2023-01-15T02:28:49;99182.00;;;12.10
15845;BMP180;50807;52.436;13.346;2023-01-15T02:29:31;99198.00;;;12.10
15845;BMP180;50807;52.436;13.346;2023-01-15T02:30:11;99177.00;;;12.10
15845;BMP180;50807;52.436;13.346;2023-01-15T02:30:52;99179.00;;;12.10
15845;BMP180;50807;52.436;13.346;2023-01-15T02:31:31;99176.00;;;12.20
15845;BMP180;50807;52.436;13.346;2023-01-15T02:32:15;99180.00;;;12.10
15845;BMP180;50807;52.436;13.346;2023-01-15T02:32:53;99176.00;;;12.20
15845;BMP180;50807;52.436;13.346;2023-01-15T02:33:34;99186.00;;;12.10
15845;BMP180;50807;52.436;13.346;2023-01-15T02:34:14;99180.00;;;12.20
15845;BMP180;50807;52.436;13.346;2023-01-15T02:34:52;99169.00;;;12.10
15845;BMP180;50807;52.436;13.346;2023-01-15T02:35:30;99168.00;;;12.20
15845;BMP180;50807;52.436;13.346;2023-01-15T02:36:08;99181.00;;;12.20
15845;BMP180;50807;52.436;13.346;2023-01-15T02:36:45;99165.00;;;12.20
15845;BMP180;50807;52.436;13.346;2023-01-15T02:37:24;99169.00;;;12.10
15845;BMP180;50807;52.436;13.346;2023-01-15T02:38:00;99185.00;;;12.20
15845;BMP180;50807;52.436;13.346;2023-01-15T02:38:39;99170.00;;;12.20
15845;BMP180;50807;52.436;13.346;2023-01-15T02:39:14;99173.00;;;12.20
15845;BMP180;50807;52.436;13.346;2023-01-15T02:39:47;99174.00;;;12.20
15845;BMP180;50807;52.436;13.346;2023-01-15T02:40:23;99171.00;;;12.20
15845;BMP180;50807;52.436;13.346;2023-01-15T02:41:00;99176.00;;;12.20
15845;BMP180;50807;52.436;13.346;2023-01-15T02:41:37;99172.00;;;12.20
15845;BMP180;50807;52.436;13.346;2023-01-15T02:42:13;99175.00;;;12.20
15845;BMP180;50807;52.436;13.346;2023-01-15T02:42:48;99156.00;;;12.20
15845;BMP180;50807;52.436;13.346;2023-01-15T02:43:21;99165.00;;;12.20
15845;BMP180;50807;52.436;13.346;2023-01-15T02:43:56;99170.00;;;12.20
15845;BMP180;50807;52.436;13.346;2023-01-15T02:44:31;99163.00;;;12.20
15845;BMP180;50807;52.436;13.346;2023-01-15T02:45:06;99163.00;;;12.20
15845;BMP180;50807;52.436;13.346;2023-01-15T02:45:43;99160.00;;;12.20
15845;BMP180;50807;52.436;13.346;2023-01-15T02:46:17;99154.00;;;12.20
15845;BMP180;50807;52.436;13.346;2023-01-15T02:46:49;99160.00;;;12.20
15845;BMP180;50807;52.436;13.346;2023-01-15T02:47:30;99154.00;;;12.20
15845;BMP180;50807;52.436;13.346;2023-01-15T02:48:07;99162.00;;;12.20
15845;BMP180;50807;52.436;13.346;2023-01-15T02:48:41;99164.00;;;12.20
15845;BMP180;50807;52.436;13.346;2023-01-15T02:49:18;99165.00;;;12.20
15845;BMP180;50807;52.436;13.346;2023-01-15T02:49:52;99158.00;;;12.20
15845;BMP180;50807;52.436;13.346;2023-01-15T02:50:31;99164.00;;;12.20
15845;BMP180;50807;52.436;13.346;2023-01-15T02:51:11;99169.00;;;12.20
15845;BMP180;50807;52.436;13.346;2023-01-15T02:51:51;99154.00;;;12.10
15845;BMP180;50807;52.436;13.346;2023-01-15T02:52:27;99162.00;;;12.20
15845;BMP180;50807;52.436;13.346;2023-01-15T02:53:07;99143.00;;;12.20
15845;BMP180;50807;52.436;13.346;2023-01-15T02:53:43;99157.00;;;12.20
15845;BMP180;50807;52.436;13.346;2023-01-15T02:54:19;99153.00;;;12.20
15845;BMP180;50807;52.436;13.346;2023-01-15T02:54:56;99154.00;;;12.20
15845;BMP180;50807;52.436;13.346;2023-01-15T02:55:35;99141.00;;;12.20
15845;BMP180;50807;52.436;13.346;2023-01-15T02:56:13;99140.00;;;12.20
15845;BMP180;50807;52.436;13.346;2023-01-15T02:56:47;99159.00;;;12.20
15845;BMP180;50807;52.436;13.346;2023-01-15T02:57:27;99149.00;;;12.20
15845;BMP180;50807;52.436;13.346;2023-01-15T02:58:03;99163.00;;;12.20
15845;BMP180;50807;52.436;13.346;2023-01-15T02:58:38;99166.00;;;12.20
15845;BMP180;50807;52.436;13.346;2023-01-15T02:59:18;99160.00;;;12.20
15845;BMP180;50807;52.436;13.346;2023-01-15T02:59:55;99177.00;;;12.20
15845;BMP180;50807;52.436;13.346;2023-01-15T03:00:33;99164.00;;;12.20
15845;BMP180;50807;52.436;13.346;2023-01-15T03:01:12;99177.00;;;12.20
15845;BMP180;50807;52.436;13.346;2023-01-15T03:01:50;99163.00;;;12.20
15845;BMP180;50807;52.436;13.346;2023-01-15T03:02:29;99168.00;;;12.20
15845;BMP180;50807;52.436;13.346;2023-01-15T03:03:11;99173.00;;;12.10
15845;BMP180;50807;52.436;13.346;2023-01-15T03:03:51;99159.00;;;12.20
15845;BMP180;50807;52.436;13.346;2023-01-15T03:04:32;99165.00;;;12.10
15845;BMP180;50807;52.436;13.346;2023-01-15T03:05:08;99162.00;;;12.20
15845;BMP180;50807;52.436;13.346;2023-01-15T03:05:51;99168.00;;;12.10
15845;BMP180;50807;52.436;13.346;2023-01-15T03:06:32;99171.00;;;12.10
15845;BMP180;50807;52.436;13.346;2023-01-15T03:07:14;99169.00;;;12.20
15845;BMP180;50807;52.436;13.346;2023-01-15T03:07:51;99164.00;;;12.20
15845;BMP180;50807;52.436;13.346;2023-01-15T03:08:24;99163.00;;;12.20
15845;BMP180;50807;52.436;13.346;2023-01-15T03:08:55;99163.00;;;12.30
15845;BMP180;50807;52.436;13.346;2023-01-15T03:09:26;99153.00;;;12.30
15845;BMP180;50807;52.436;13.346;2023-01-15T03:09:58;99156.00;;;12.30
15845;BMP180;50807;52.436;13.346;2023-01-15T03:10:41;99164.00;;;12.20
15845;BMP180;50807;52.436;13.346;2023-01-15T03:11:15;99161.00;;;12.30
15845;BMP180;50807;52.436;13.346;2023-01-15T03:11:55;99155.00;;;12.20
15845;BMP180;50807;52.436;13.346;2023-01-15T03:12:40;99156.00;;;12.20
15845;BMP180;50807;52.436;13.346;2023-01-15T03:13:41;99155.00;;;12.20
15845;BMP180;50807;52.436;13.346;2023-01-15T03:14:19;99162.00;;;12.20
15845;BMP180;50807;52.436;13.346;2023-01-15T03:15:01;99155.00;;;12.20
15845;BMP180;50807;52.436;13.346;2023-01-15T03:15:45;99148.00;;;12.20
15845;BMP180;50807;52.436;13.346;2023-01-15T03:16:44;99159.00;;;12.20